Terminal Aerodrome Forecast
Issued by NWS Newport/Morehead City, NC

Home | Current Version | Previous Version | Graphics & Text | Print | Product List | Glossary On
Versions: 1 2 3 4 5 6 7 8 9 10 11 12 13 14 15 16 17 18 19 20 21 22 23
000
FTUS42 KMHX 241800 AAA
TAFEWN
TAF AMD
KEWN 241858Z 2419/2518 17007KT P6SM VCSH OVC010
     FM250100 20004KT 5SM BR OVC010
     FM251000 24003KT 3SM BR VCSH OVC010
     FM251700 32008KT P6SM VCSH OVC010=

USA.gov is the U.S. government's official web portal to all federal, state and local government web resources and services.